Time;durP1;ratioP1;P1;durP2;ratioP2;P2;SDS_P1;SDS_P2;PMS_P1;PMS_P2;Temp;Humidity;BMP_temperature;BMP_pressure;BME280_temperature;BME280_humidity;BME280_pressure;Samples;Min_cycle;Max_cycle;Signal;HPM_P1;HPM_P2
2022/09/17 00:02:07;;;;;;;2.27;1.40;;;10.40;99.90;;;;;;5023670;28;20440;-75
2022/09/17 00:04:53;;;;;;;1.90;1.10;;;10.40;99.90;;;;;;5022606;28;20462;-76
2022/09/17 00:07:38;;;;;;;2.40;1.50;;;10.50;99.90;;;;;;5052737;22;21187;-74
2022/09/17 00:10:26;;;;;;;2.90;1.33;;;10.60;99.90;;;;;;5046531;28;20852;-74
2022/09/17 00:13:12;;;;;;;3.80;1.13;;;10.70;99.90;;;;;;5047651;28;20805;-74
2022/09/17 00:15:58;;;;;;;2.40;1.23;;;10.50;99.90;;;;;;5049312;28;20454;-74
2022/09/17 00:18:43;;;;;;;2.47;1.10;;;10.50;99.90;;;;;;5048725;28;20538;-74
2022/09/17 00:21:30;;;;;;;3.33;1.37;;;10.40;99.90;;;;;;5042635;28;20472;-74
2022/09/17 00:24:17;;;;;;;4.50;1.77;;;10.50;99.90;;;;;;5048976;28;21018;-74
2022/09/17 00:27:04;;;;;;;4.13;1.73;;;10.50;99.90;;;;;;5047696;28;20447;-74
2022/09/17 00:29:50;;;;;;;3.03;1.37;;;10.60;99.90;;;;;;5043079;28;20451;-74
2022/09/17 00:32:35;;;;;;;2.77;1.00;;;10.50;99.90;;;;;;5046979;28;21021;-74
2022/09/17 00:35:21;;;;;;;4.00;1.27;;;10.60;99.90;;;;;;5049612;28;20500;-74
2022/09/17 00:38:07;;;;;;;2.63;1.43;;;10.50;99.90;;;;;;5046731;28;20470;-74
2022/09/17 00:40:53;;;;;;;2.10;1.00;;;10.60;99.90;;;;;;5042426;28;20560;-74
2022/09/17 00:43:45;;;;;;;5.27;1.13;;;10.50;99.90;;;;;;5047290;28;20439;-74
2022/09/17 00:46:35;;;;;;;3.10;1.30;;;10.30;99.90;;;;;;5042769;28;20904;-72
2022/09/17 00:49:26;;;;;;;4.27;1.40;;;10.30;99.90;;;;;;5045552;28;20463;-71
2022/09/17 00:52:15;;;;;;;3.53;1.40;;;10.30;99.90;;;;;;5039423;28;20435;-72
2022/09/17 00:55:07;;;;;;;3.33;1.30;;;10.30;99.90;;;;;;5043372;28;20837;-72
2022/09/17 00:57:57;;;;;;;4.40;1.57;;;10.30;99.90;;;;;;5038674;28;20459;-72
2022/09/17 01:00:46;;;;;;;2.73;1.50;;;10.20;99.90;;;;;;5040647;28;20458;-72
2022/09/17 01:03:32;;;;;;;2.00;1.10;;;10.20;99.90;;;;;;5037268;28;20668;-71
2022/09/17 01:06:25;;;;;;;3.20;1.40;;;10.30;99.90;;;;;;5046514;28;20438;-71
2022/09/17 01:09:23;;;;;;;3.57;1.30;;;10.40;99.90;;;;;;5043933;28;20545;-71
2022/09/17 01:12:26;;;;;;;2.23;1.27;;;10.50;99.90;;;;;;5045573;28;20460;-72
2022/09/17 01:15:23;;;;;;;2.10;1.13;;;10.40;99.90;;;;;;5045389;28;20444;-72
2022/09/17 01:18:23;;;;;;;2.53;1.10;;;10.40;99.90;;;;;;5043997;28;20468;-71
2022/09/17 01:21:43;;;;;;;3.23;1.40;;;10.30;99.90;;;;;;5040496;28;20835;-72
2022/09/17 01:24:47;;;;;;;4.23;1.23;;;10.20;99.90;;;;;;5045815;28;20992;-71
2022/09/17 01:28:14;;;;;;;1.77;1.00;;;10.10;99.90;;;;;;5041534;28;20467;-72
2022/09/17 01:31:18;;;;;;;2.20;0.90;;;10.10;99.90;;;;;;5040004;28;20784;-72
2022/09/17 01:34:13;;;;;;;5.10;1.60;;;10.30;99.90;;;;;;5047087;28;20443;-72
2022/09/17 01:37:04;;;;;;;4.07;1.10;;;10.40;99.90;;;;;;5045671;28;20518;-71
2022/09/17 01:39:59;;;;;;;3.77;2.47;;;10.40;99.90;;;;;;5038139;28;20456;-70
2022/09/17 01:42:51;;;;;;;2.13;1.30;;;10.50;99.90;;;;;;5045154;28;20791;-71
2022/09/17 01:45:43;;;;;;;4.53;1.23;;;10.50;99.90;;;;;;5042278;28;20574;-71
2022/09/17 01:48:33;;;;;;;4.70;1.53;;;10.40;99.90;;;;;;5046625;28;20441;-71
2022/09/17 01:51:22;;;;;;;2.93;1.40;;;10.30;99.90;;;;;;5042681;28;20513;-71
2022/09/17 01:54:14;;;;;;;3.33;1.23;;;10.20;99.90;;;;;;5044025;28;20517;-72
2022/09/17 01:57:04;;;;;;;3.13;1.07;;;10.20;99.90;;;;;;5044931;28;20471;-71
2022/09/17 01:59:55;;;;;;;3.63;1.10;;;10.20;99.90;;;;;;5041308;28;20962;-72
2022/09/17 02:02:45;;;;;;;2.73;1.20;;;10.10;99.90;;;;;;5047479;28;20493;-72
2022/09/17 02:05:38;;;;;;;2.13;1.37;;;10.00;99.90;;;;;;5048705;28;20510;-71
2022/09/17 02:08:25;;;;;;;2.70;0.90;;;10.00;99.90;;;;;;5047510;28;20475;-72
2022/09/17 02:11:15;;;;;;;6.97;1.43;;;10.10;99.90;;;;;;5045656;28;20493;-72
2022/09/17 02:14:07;;;;;;;4.00;1.40;;;10.10;99.90;;;;;;5049013;28;20765;-71
2022/09/17 02:16:56;;;;;;;3.73;1.23;;;10.10;99.90;;;;;;5044500;28;20471;-72
2022/09/17 02:19:44;;;;;;;6.67;1.40;;;10.10;99.90;;;;;;5046638;28;20807;-71
2022/09/17 02:22:38;;;;;;;4.17;1.33;;;10.10;99.90;;;;;;5046995;28;20435;-71
2022/09/17 02:25:28;;;;;;;6.93;1.10;;;10.10;99.90;;;;;;5047831;28;20594;-72
2022/09/17 02:28:20;;;;;;;4.80;1.23;;;10.00;99.90;;;;;;5044623;28;20460;-71
2022/09/17 02:31:06;;;;;;;6.50;1.30;;;10.00;99.90;;;;;;5043316;28;20950;-71
2022/09/17 02:33:57;;;;;;;3.13;1.30;;;10.10;99.90;;;;;;5054103;28;20967;-72
2022/09/17 02:36:42;;;;;;;3.50;1.07;;;10.10;99.90;;;;;;5052780;28;20431;-71
2022/09/17 02:39:29;;;;;;;3.43;1.37;;;10.10;99.90;;;;;;5046596;28;20932;-70
2022/09/17 02:42:22;;;;;;;4.17;1.40;;;10.20;99.90;;;;;;5047981;28;21151;-71
2022/09/17 02:45:17;;;;;;;4.27;1.20;;;10.30;99.90;;;;;;5046739;28;20471;-72
2022/09/17 02:48:15;;;;;;;4.83;1.40;;;10.40;99.90;;;;;;5047197;28;20957;-71
2022/09/17 02:51:23;;;;;;;3.83;1.17;;;10.50;99.90;;;;;;5045196;28;20432;-71
2022/09/17 02:54:20;;;;;;;3.90;1.20;;;10.50;99.90;;;;;;5050616;28;20463;-72
2022/09/17 02:57:15;;;;;;;3.53;1.17;;;10.40;99.90;;;;;;5045910;28;21031;-71
2022/09/17 03:00:07;;;;;;;3.57;1.90;;;10.40;99.90;;;;;;5045270;28;20927;-71
2022/09/17 03:02:59;;;;;;;6.80;1.60;;;10.30;99.90;;;;;;5048374;28;20467;-71
2022/09/17 03:05:45;;;;;;;2.73;1.57;;;10.40;99.90;;;;;;5054601;28;20777;-71
2022/09/17 03:08:34;;;;;;;5.30;1.90;;;10.30;99.90;;;;;;5038112;28;20503;-71
2022/09/17 03:11:20;;;;;;;6.13;1.53;;;10.40;99.90;;;;;;5051487;28;20427;-71
2022/09/17 03:14:07;;;;;;;4.10;1.90;;;10.40;99.90;;;;;;5045765;28;20524;-71
2022/09/17 03:16:52;;;;;;;5.20;1.70;;;10.40;99.90;;;;;;5047322;28;21030;-71
2022/09/17 03:19:38;;;;;;;3.47;1.60;;;10.40;99.90;;;;;;5042953;28;20497;-71
2022/09/17 03:22:24;;;;;;;4.87;1.70;;;10.40;99.90;;;;;;5044662;28;21127;-71
2022/09/17 03:25:09;;;;;;;4.10;1.97;;;10.60;99.90;;;;;;5047207;28;20976;-71
2022/09/17 03:27:55;;;;;;;10.20;2.10;;;10.70;99.90;;;;;;5048144;28;20466;-71
2022/09/17 03:30:43;;;;;;;4.27;1.63;;;10.80;99.90;;;;;;5042238;28;21006;-71
2022/09/17 03:33:29;;;;;;;4.30;1.90;;;10.90;99.90;;;;;;5047867;28;21005;-71
2022/09/17 03:36:14;;;;;;;5.87;2.13;;;11.00;99.90;;;;;;5050553;28;20948;-71
2022/09/17 03:39:00;;;;;;;4.90;1.87;;;10.90;99.90;;;;;;5040958;28;21001;-71
2022/09/17 03:41:46;;;;;;;6.70;2.40;;;10.70;99.90;;;;;;5048920;28;20454;-71
2022/09/17 03:44:32;;;;;;;9.53;2.27;;;10.60;99.90;;;;;;5047605;28;20515;-71
2022/09/17 03:47:19;;;;;;;4.70;2.43;;;10.60;99.90;;;;;;5045601;28;20509;-71
2022/09/17 03:50:06;;;;;;;8.90;2.50;;;10.70;99.90;;;;;;5045344;28;20581;-71
2022/09/17 03:52:52;;;;;;;4.50;1.77;;;10.80;99.90;;;;;;5045543;28;20773;-71
2022/09/17 03:55:38;;;;;;;6.63;1.90;;;10.70;99.90;;;;;;5044774;28;20844;-72
2022/09/17 03:58:24;;;;;;;12.53;2.30;;;10.70;99.90;;;;;;5034341;28;20442;-71
2022/09/17 04:01:09;;;;;;;7.90;2.73;;;10.70;99.90;;;;;;5043691;28;20479;-71
2022/09/17 04:03:56;;;;;;;5.30;2.20;;;10.80;99.90;;;;;;5046247;28;20960;-71
2022/09/17 04:06:42;;;;;;;9.00;2.07;;;10.80;99.90;;;;;;5043916;28;20525;-71
2022/09/17 04:09:28;;;;;;;8.13;2.30;;;10.80;99.90;;;;;;5041833;28;20440;-71
2022/09/17 04:12:13;;;;;;;14.77;3.83;;;10.80;99.90;;;;;;5047672;28;20418;-71
2022/09/17 04:14:59;;;;;;;7.20;2.80;;;10.60;99.90;;;;;;5046370;28;20443;-71
2022/09/17 04:17:45;;;;;;;6.63;3.47;;;10.40;99.90;;;;;;5043642;28;20445;-71
2022/09/17 04:20:32;;;;;;;10.40;5.60;;;10.40;99.90;;;;;;5045307;28;20981;-71
2022/09/17 04:23:17;;;;;;;13.43;5.70;;;10.30;99.90;;;;;;5047078;28;20450;-71
2022/09/17 04:26:03;;;;;;;12.47;5.20;;;10.30;99.90;;;;;;5040748;28;20418;-71
2022/09/17 04:28:49;;;;;;;8.07;5.80;;;10.40;99.90;;;;;;5039051;28;20549;-71
2022/09/17 04:31:34;;;;;;;11.43;5.63;;;10.50;99.90;;;;;;5041502;28;20435;-71
2022/09/17 04:34:20;;;;;;;10.93;4.90;;;10.40;99.90;;;;;;5043638;28;20567;-72
2022/09/17 04:37:07;;;;;;;11.80;5.67;;;10.40;99.90;;;;;;5044485;28;20444;-71
2022/09/17 04:39:53;;;;;;;6.57;5.07;;;10.40;99.90;;;;;;5042353;28;20442;-71
2022/09/17 04:42:39;;;;;;;7.43;5.17;;;10.30;99.90;;;;;;5043991;28;20510;-71
2022/09/17 04:45:24;;;;;;;9.17;4.70;;;10.20;99.90;;;;;;5045121;28;20467;-72
2022/09/17 04:48:10;;;;;;;11.70;4.73;;;10.20;99.90;;;;;;5042558;28;20557;-71
2022/09/17 04:50:56;;;;;;;12.73;4.47;;;10.30;99.90;;;;;;5041929;28;20449;-71
2022/09/17 04:53:42;;;;;;;12.10;4.70;;;10.30;99.90;;;;;;5046213;28;20447;-70
2022/09/17 04:56:28;;;;;;;10.43;4.10;;;10.30;99.90;;;;;;5038615;28;20502;-71
2022/09/17 04:59:14;;;;;;;6.83;4.07;;;10.30;99.90;;;;;;5037384;28;20662;-71
2022/09/17 05:02:00;;;;;;;10.57;3.93;;;10.30;99.90;;;;;;5044574;28;21118;-71
2022/09/17 05:04:45;;;;;;;5.90;3.70;;;10.40;99.90;;;;;;5046223;28;20466;-71
2022/09/17 05:07:31;;;;;;;5.50;3.20;;;10.40;99.90;;;;;;5042263;28;21106;-71
2022/09/17 05:10:20;;;;;;;5.43;3.30;;;10.50;99.90;;;;;;5049996;28;20427;-71
2022/09/17 05:13:05;;;;;;;7.83;3.37;;;10.50;99.90;;;;;;5044615;28;20443;-71
2022/09/17 05:15:51;;;;;;;9.17;2.90;;;10.50;99.90;;;;;;5040066;28;20447;-71
2022/09/17 05:18:37;;;;;;;10.53;2.60;;;10.50;99.90;;;;;;5042155;28;20490;-71
2022/09/17 05:21:22;;;;;;;3.73;2.40;;;10.50;99.90;;;;;;5042987;28;21019;-71
2022/09/17 05:24:08;;;;;;;7.20;2.60;;;10.50;99.90;;;;;;5045134;28;20824;-71
2022/09/17 05:26:55;;;;;;;9.97;2.23;;;10.60;99.90;;;;;;5042227;28;20459;-71
2022/09/17 05:29:41;;;;;;;8.63;2.27;;;10.60;99.90;;;;;;5046350;28;20946;-71
2022/09/17 05:32:27;;;;;;;3.80;2.40;;;10.50;99.90;;;;;;5046053;28;21142;-71
2022/09/17 05:35:12;;;;;;;8.03;2.60;;;10.60;99.90;;;;;;5043324;28;20922;-70
2022/09/17 05:37:59;;;;;;;4.80;2.50;;;10.70;99.90;;;;;;5038460;28;20493;-71
2022/09/17 05:40:45;;;;;;;5.33;2.03;;;10.90;99.90;;;;;;5044637;28;20448;-71
2022/09/17 05:43:31;;;;;;;8.60;3.30;;;10.90;99.90;;;;;;5044147;28;20611;-71
2022/09/17 05:46:17;;;;;;;6.80;2.30;;;11.00;99.90;;;;;;5043075;28;20447;-71
2022/09/17 05:49:03;;;;;;;5.13;2.27;;;11.10;99.90;;;;;;5041222;28;20845;-71
2022/09/17 05:51:50;;;;;;;12.60;2.50;;;11.10;99.90;;;;;;5046029;28;20447;-71
2022/09/17 05:54:36;;;;;;;5.10;2.20;;;11.10;99.90;;;;;;5044697;28;20426;-71
2022/09/17 05:57:22;;;;;;;4.10;2.30;;;11.20;99.90;;;;;;5040823;28;20518;-71
2022/09/17 06:00:11;;;;;;;11.33;2.60;;;11.20;99.90;;;;;;5048506;28;20467;-71
2022/09/17 06:02:57;;;;;;;8.80;2.40;;;11.20;99.90;;;;;;5046135;28;20466;-70
2022/09/17 06:05:44;;;;;;;2.63;2.07;;;11.20;99.90;;;;;;5042633;28;20455;-71
2022/09/17 06:08:30;;;;;;;4.13;2.10;;;11.30;99.90;;;;;;5068196;22;20506;-74
2022/09/17 06:11:15;;;;;;;4.90;2.10;;;11.40;99.90;;;;;;5066861;28;21077;-74
2022/09/17 06:14:01;;;;;;;5.27;2.30;;;11.50;99.90;;;;;;5065521;28;20490;-74
2022/09/17 06:16:48;;;;;;;11.80;3.17;;;11.50;99.90;;;;;;5063526;28;20442;-74
2022/09/17 06:19:33;;;;;;;7.13;2.97;;;11.50;99.90;;;;;;5086517;28;20489;-74
2022/09/17 06:22:19;;;;;;;9.53;2.40;;;11.60;99.90;;;;;;5086205;28;20514;-75
2022/09/17 06:25:06;;;;;;;5.07;2.07;;;11.60;99.90;;;;;;5080275;28;20989;-74
2022/09/17 06:27:52;;;;;;;5.60;1.97;;;11.60;99.90;;;;;;5079133;28;20481;-75
2022/09/17 06:30:37;;;;;;;8.10;2.70;;;11.60;99.90;;;;;;5083626;28;20460;-74
2022/09/17 06:33:25;;;;;;;9.30;2.97;;;11.60;99.90;;;;;;5084607;28;20476;-75
2022/09/17 06:36:12;;;;;;;10.20;2.87;;;11.60;99.90;;;;;;5080884;28;21307;-74
2022/09/17 06:38:57;;;;;;;4.63;1.97;;;11.70;99.90;;;;;;5081490;28;20476;-74
2022/09/17 06:41:43;;;;;;;8.80;2.43;;;11.70;99.90;;;;;;5083433;28;20976;-74
2022/09/17 06:44:28;;;;;;;4.57;2.10;;;11.70;99.90;;;;;;5085186;28;20434;-74
2022/09/17 06:47:14;;;;;;;4.50;2.27;;;11.70;99.90;;;;;;5080533;28;20948;-74
2022/09/17 06:50:01;;;;;;;4.63;2.03;;;11.70;99.90;;;;;;5080533;28;20434;-74
2022/09/17 06:52:49;;;;;;;3.73;1.80;;;11.80;99.90;;;;;;5082792;28;20844;-74
2022/09/17 06:55:35;;;;;;;6.27;2.87;;;11.90;99.90;;;;;;5087127;28;20495;-74
2022/09/17 06:58:20;;;;;;;7.10;2.40;;;11.90;99.90;;;;;;5082156;28;20999;-74
2022/09/17 07:01:06;;;;;;;4.93;2.33;;;11.90;99.90;;;;;;5089333;28;20998;-75
2022/09/17 07:03:52;;;;;;;5.30;1.50;;;12.00;99.90;;;;;;5084611;28;20479;-74
2022/09/17 07:06:39;;;;;;;4.60;2.23;;;11.90;99.90;;;;;;5080623;28;20529;-74
2022/09/17 07:09:25;;;;;;;6.87;2.13;;;11.90;99.90;;;;;;5081503;28;20956;-74
2022/09/17 07:12:10;;;;;;;12.13;2.10;;;11.90;99.90;;;;;;5090266;28;20617;-74
2022/09/17 07:14:56;;;;;;;13.70;2.57;;;11.90;99.90;;;;;;5087416;28;20417;-74
2022/09/17 07:17:43;;;;;;;7.00;2.40;;;11.90;99.90;;;;;;5077801;28;20473;-74
2022/09/17 07:20:28;;;;;;;5.13;2.50;;;11.90;99.90;;;;;;5086270;28;20512;-74
2022/09/17 07:23:16;;;;;;;7.10;2.87;;;12.00;99.90;;;;;;5087545;28;20476;-74
2022/09/17 07:26:03;;;;;;;8.00;2.20;;;12.00;99.90;;;;;;5083872;28;20552;-74
2022/09/17 07:28:49;;;;;;;5.03;2.33;;;12.10;99.90;;;;;;5076368;28;20450;-74
2022/09/17 07:31:34;;;;;;;6.30;2.40;;;12.00;99.90;;;;;;5092995;28;20461;-75
2022/09/17 07:34:20;;;;;;;8.30;2.80;;;12.10;99.90;;;;;;5083595;28;20433;-74
2022/09/17 07:37:06;;;;;;;5.93;2.47;;;11.90;99.90;;;;;;5086255;28;20468;-74
2022/09/17 07:39:53;;;;;;;5.20;2.53;;;12.00;99.90;;;;;;5091053;28;20430;-74
2022/09/17 07:42:38;;;;;;;7.77;3.10;;;12.00;99.90;;;;;;5082407;28;20624;-74
2022/09/17 07:45:24;;;;;;;6.47;3.07;;;12.00;99.90;;;;;;5088061;28;20430;-74
2022/09/17 07:48:10;;;;;;;5.10;2.33;;;12.00;99.90;;;;;;5082644;28;20859;-74
2022/09/17 07:50:56;;;;;;;11.13;2.90;;;12.00;99.90;;;;;;5087479;28;20556;-74
2022/09/17 07:53:42;;;;;;;7.20;2.80;;;12.00;99.90;;;;;;5094243;28;20422;-74
2022/09/17 07:56:29;;;;;;;12.40;3.03;;;12.10;99.90;;;;;;5082128;28;20451;-75
2022/09/17 07:59:15;;;;;;;10.93;2.93;;;12.10;99.90;;;;;;5087294;28;20468;-74
2022/09/17 08:02:01;;;;;;;5.10;2.90;;;12.20;99.90;;;;;;5087288;28;20477;-74
2022/09/17 08:04:46;;;;;;;13.73;4.43;;;12.40;99.90;;;;;;5082039;28;20628;-74
2022/09/17 08:07:32;;;;;;;8.50;2.87;;;12.50;99.90;;;;;;5082808;28;20453;-74
2022/09/17 08:10:20;;;;;;;9.60;3.10;;;12.40;99.90;;;;;;5076564;28;20446;-74
2022/09/17 08:13:07;;;;;;;17.77;3.23;;;12.50;99.90;;;;;;5093681;28;20422;-73
2022/09/17 08:15:52;;;;;;;8.13;3.00;;;12.60;99.90;;;;;;5087134;28;20485;-73
2022/09/17 08:18:38;;;;;;;10.23;3.30;;;12.60;99.90;;;;;;5089072;28;20961;-74
2022/09/17 08:21:24;;;;;;;20.93;3.37;;;12.70;99.90;;;;;;5090186;28;20438;-72
2022/09/17 08:24:10;;;;;;;14.73;3.17;;;12.80;99.90;;;;;;5083546;28;20430;-73
2022/09/17 08:26:55;;;;;;;8.10;3.03;;;12.80;99.90;;;;;;5079388;28;20498;-72
2022/09/17 08:29:42;;;;;;;8.33;2.60;;;12.80;99.90;;;;;;5090061;28;21010;-72
2022/09/17 08:32:29;;;;;;;7.70;3.50;;;12.70;99.90;;;;;;5084626;28;20393;-72
2022/09/17 08:35:16;;;;;;;12.60;2.70;;;12.60;99.90;;;;;;5078569;28;20415;-72
2022/09/17 08:38:02;;;;;;;8.23;2.97;;;12.70;99.90;;;;;;5082341;28;20480;-72
2022/09/17 08:41:00;;;;;;;14.00;2.90;;;12.80;99.90;;;;;;5086543;28;20486;-74
2022/09/17 08:43:53;;;;;;;16.00;3.17;;;12.90;99.90;;;;;;5082163;28;20469;-74
2022/09/17 08:46:46;;;;;;;9.63;3.23;;;12.90;99.90;;;;;;5073176;28;20458;-74
2022/09/17 08:49:35;;;;;;;16.03;3.10;;;12.80;99.90;;;;;;5077637;28;20519;-74
2022/09/17 08:52:45;;;;;;;8.70;2.80;;;12.90;99.90;;;;;;5080294;28;20525;-74
2022/09/17 08:55:40;;;;;;;8.63;2.30;;;12.80;99.90;;;;;;5073778;28;20431;-73
2022/09/17 08:58:39;;;;;;;5.63;2.60;;;12.80;99.90;;;;;;5085733;28;20503;-74
2022/09/17 09:01:34;;;;;;;18.23;3.47;;;12.90;99.90;;;;;;5080244;28;20655;-74
2022/09/17 09:04:36;;;;;;;8.47;2.70;;;13.00;99.90;;;;;;5086469;28;20433;-74
2022/09/17 09:07:26;;;;;;;5.50;2.33;;;13.30;99.90;;;;;;5076581;28;20404;-74
2022/09/17 09:10:17;;;;;;;8.07;2.87;;;13.60;99.90;;;;;;5077196;28;20418;-74
2022/09/17 09:13:05;;;;;;;7.40;2.93;;;13.70;99.90;;;;;;5077590;28;20401;-74
2022/09/17 09:15:55;;;;;;;20.60;2.37;;;13.80;99.90;;;;;;5077076;28;20421;-75
2022/09/17 09:18:41;;;;;;;13.50;2.43;;;13.80;99.90;;;;;;5084049;28;20499;-73
2022/09/17 09:21:30;;;;;;;9.47;3.10;;;13.80;99.90;;;;;;5083795;28;20897;-74
2022/09/17 09:24:22;;;;;;;9.63;2.23;;;13.80;99.90;;;;;;5083027;28;20448;-73
2022/09/17 09:27:17;;;;;;;15.40;2.10;;;13.80;99.90;;;;;;5084668;28;20547;-74
2022/09/17 09:30:06;;;;;;;7.07;2.30;;;13.70;99.90;;;;;;5083045;28;20409;-74
2022/09/17 09:32:58;;;;;;;7.77;1.70;;;13.80;99.90;;;;;;5084490;28;20440;-74
2022/09/17 09:35:44;;;;;;;13.47;2.53;;;13.90;99.90;;;;;;5081008;28;20450;-74
2022/09/17 09:38:35;;;;;;;7.57;2.20;;;14.00;99.90;;;;;;5084155;28;20842;-74
2022/09/17 09:41:28;;;;;;;10.90;1.93;;;13.90;99.90;;;;;;5083910;28;20492;-74
2022/09/17 09:44:16;;;;;;;13.37;2.20;;;13.80;99.90;;;;;;5081541;28;20519;-75
2022/09/17 09:47:20;;;;;;;6.77;2.33;;;13.80;99.90;;;;;;5085958;28;20481;-74
2022/09/17 09:50:18;;;;;;;11.90;1.97;;;13.50;99.90;;;;;;5080589;28;20811;-73
2022/09/17 09:53:12;;;;;;;7.80;1.63;;;13.60;99.90;;;;;;5081043;28;20849;-74
2022/09/17 09:56:28;;;;;;;7.20;1.93;;;13.70;99.90;;;;;;5078806;28;20420;-74
2022/09/17 09:59:14;;;;;;;6.03;1.63;;;14.10;99.90;;;;;;5085323;28;20436;-74
2022/09/17 10:01:59;;;;;;;5.60;1.67;;;14.40;99.90;;;;;;5083527;28;20447;-74
2022/09/17 10:04:45;;;;;;;6.57;2.07;;;14.40;99.90;;;;;;5077204;28;20420;-75
2022/09/17 10:07:31;;;;;;;10.67;2.60;;;14.40;99.90;;;;;;5079910;28;20424;-74
2022/09/17 10:10:16;;;;;;;10.97;2.40;;;14.30;99.90;;;;;;5086705;28;20437;-74
2022/09/17 10:13:15;;;;;;;4.40;1.83;;;14.30;99.90;;;;;;5087394;28;20556;-73
2022/09/17 10:16:17;;;;;;;13.70;2.00;;;14.00;99.90;;;;;;5081824;28;20412;-74
2022/09/17 10:19:14;;;;;;;5.03;1.93;;;13.60;99.90;;;;;;5086469;28;20825;-74
2022/09/17 10:22:20;;;;;;;11.40;2.30;;;13.40;99.90;;;;;;5086559;28;20503;-74
2022/09/17 10:25:28;;;;;;;3.57;1.53;;;13.40;99.90;;;;;;5080507;28;20445;-74
2022/09/17 10:28:46;;;;;;;5.30;1.27;;;13.70;99.90;;;;;;5087240;28;20440;-74
2022/09/17 10:31:47;;;;;;;5.80;1.70;;;13.90;99.90;;;;;;5084289;28;20929;-74
2022/09/17 10:34:34;;;;;;;4.80;1.47;;;14.10;99.90;;;;;;5081027;28;20460;-74
2022/09/17 10:37:41;;;;;;;2.17;1.20;;;14.40;99.90;;;;;;5079051;28;20924;-75
2022/09/17 10:40:31;;;;;;;5.90;1.30;;;14.70;99.90;;;;;;5084051;28;20437;-75
2022/09/17 10:43:22;;;;;;;5.93;1.63;;;14.60;99.90;;;;;;5076136;28;20825;-74
2022/09/17 10:46:13;;;;;;;5.17;1.50;;;14.60;99.90;;;;;;5079782;28;20551;-76
2022/09/17 10:49:10;;;;;;;5.57;1.60;;;14.60;99.90;;;;;;5076188;28;20606;-75
2022/09/17 10:52:06;;;;;;;8.03;2.10;;;14.30;99.90;;;;;;5076605;28;20555;-74
2022/09/17 10:55:29;;;;;;;7.77;2.03;;;14.10;99.90;;;;;;5071493;28;20557;-74
2022/09/17 10:58:29;;;;;;;6.40;1.90;;;14.00;99.90;;;;;;5074394;28;20474;-74
2022/09/17 11:01:29;;;;;;;7.73;1.50;;;14.00;99.90;;;;;;5079092;28;20542;-74
2022/09/17 11:04:27;;;;;;;4.43;1.70;;;13.70;99.90;;;;;;5070545;28;20480;-74
2022/09/17 11:07:34;;;;;;;12.90;1.50;;;13.60;99.90;;;;;;5077181;28;20458;-74
2022/09/17 11:10:29;;;;;;;7.00;1.50;;;13.50;99.90;;;;;;5075873;28;20429;-74
2022/09/17 11:13:24;;;;;;;5.43;1.63;;;13.50;99.90;;;;;;5072465;28;20442;-74
2022/09/17 11:16:24;;;;;;;5.20;1.80;;;13.60;99.90;;;;;;5071246;28;20443;-75
2022/09/17 11:19:19;;;;;;;7.23;1.73;;;13.70;99.90;;;;;;5072081;28;20580;-75
2022/09/17 11:22:11;;;;;;;4.57;1.60;;;13.70;99.90;;;;;;5075249;28;20455;-74
2022/09/17 11:25:21;;;;;;;6.03;1.70;;;13.80;99.90;;;;;;5072028;28;20642;-74
2022/09/17 11:28:21;;;;;;;7.90;1.60;;;13.90;99.90;;;;;;5076295;28;20486;-75
2022/09/17 11:31:21;;;;;;;4.13;1.67;;;13.90;99.90;;;;;;5076358;28;20438;-75
2022/09/17 11:34:26;;;;;;;5.77;1.50;;;14.00;99.90;;;;;;5070323;28;20524;-75
2022/09/17 11:37:19;;;;;;;10.10;1.83;;;14.20;99.90;;;;;;5070052;28;20458;-74
2022/09/17 11:40:13;;;;;;;5.87;1.33;;;14.40;99.90;;;;;;5071784;28;20502;-75
2022/09/17 11:43:04;;;;;;;7.20;1.57;;;14.50;99.90;;;;;;5071170;28;22974;-74
2022/09/17 11:45:58;;;;;;;9.93;2.20;;;14.60;99.90;;;;;;5072279;28;20474;-75
2022/09/17 11:48:50;;;;;;;13.93;1.80;;;14.60;99.90;;;;;;5075086;28;20464;-74
2022/09/17 11:51:42;;;;;;;6.00;1.27;;;14.70;99.90;;;;;;5072928;28;20421;-75
2022/09/17 11:54:31;;;;;;;6.07;2.27;;;14.80;99.90;;;;;;5072035;28;20687;-74
2022/09/17 11:57:19;;;;;;;5.77;2.40;;;14.70;99.90;;;;;;5072284;28;20466;-75
2022/09/17 12:00:13;;;;;;;5.40;1.50;;;14.80;99.90;;;;;;5073579;28;20467;-75
2022/09/17 12:03:05;;;;;;;4.80;1.50;;;14.80;99.90;;;;;;5069370;28;20723;-75
2022/09/17 12:05:55;;;;;;;11.00;1.67;;;14.70;99.90;;;;;;5075558;28;20657;-75
2022/09/17 12:08:51;;;;;;;6.60;1.50;;;14.90;99.90;;;;;;5066633;22;20462;-89
2022/09/17 12:11:42;;;;;;;8.60;1.60;;;14.90;99.90;;;;;;5036928;28;20426;-88
2022/09/17 12:14:39;;;;;;;3.93;1.63;;;14.90;99.90;;;;;;5033928;28;20418;-89
2022/09/17 12:17:29;;;;;;;8.83;1.63;;;15.00;99.90;;;;;;5031965;28;20489;-88
2022/09/17 12:20:22;;;;;;;4.97;1.63;;;15.00;99.90;;;;;;5035630;28;20516;-89
2022/09/17 12:23:14;;;;;;;6.57;1.50;;;15.20;99.90;;;;;;5034995;28;20998;-89
2022/09/17 12:26:10;;;;;;;6.60;1.93;;;15.40;99.90;;;;;;5035742;28;20941;-89
2022/09/17 12:29:03;;;;;;;6.33;1.77;;;15.50;99.90;;;;;;5034483;28;20426;-89
2022/09/17 12:31:55;;;;;;;5.90;2.20;;;15.60;99.90;;;;;;5035159;28;20419;-89
2022/09/17 12:34:52;;;;;;;8.27;0.90;;;15.70;99.90;;;;;;5036035;28;21024;-89
2022/09/17 12:37:43;;;;;;;6.73;1.50;;;15.50;99.90;;;;;;5030572;28;20442;-89
2022/09/17 12:40:33;;;;;;;5.80;1.33;;;15.30;99.90;;;;;;5037473;28;20521;-89
2022/09/17 12:43:38;;;;;;;5.37;1.63;;;15.30;99.90;;;;;;5034374;28;20445;-90
2022/09/17 12:46:38;;;;;;;4.73;1.07;;;15.20;99.90;;;;;;5033770;28;20829;-89
2022/09/17 12:49:44;;;;;;;6.73;1.37;;;15.20;99.90;;;;;;5035788;28;20504;-89
2022/09/17 12:52:40;;;;;;;5.50;1.60;;;15.30;99.90;;;;;;5034741;28;21318;-88
2022/09/17 12:55:40;;;;;;;7.10;1.10;;;15.30;99.90;;;;;;5027763;28;20425;-88
2022/09/17 12:58:52;;;;;;;5.83;1.53;;;15.50;99.90;;;;;;5037250;28;20422;-88
2022/09/17 13:01:48;;;;;;;3.37;1.40;;;15.50;99.90;;;;;;5035980;28;21031;-88
2022/09/17 13:05:00;;;;;;;7.60;1.07;;;15.50;99.90;;;;;;5038230;28;20463;-92
2022/09/17 13:08:03;;;;;;;4.70;1.13;;;15.20;99.90;;;;;;5038454;28;20521;-89
2022/09/17 13:11:14;;;;;;;4.57;1.10;;;14.90;99.90;;;;;;5035246;28;20426;-89
2022/09/17 13:14:09;;;;;;;5.20;1.40;;;14.70;99.90;;;;;;5030840;28;21170;-89
2022/09/17 13:17:00;;;;;;;5.70;1.53;;;14.50;99.90;;;;;;5035559;28;21003;-89
2022/09/17 13:19:58;;;;;;;9.70;2.37;;;14.60;99.90;;;;;;5034084;28;20459;-89
2022/09/17 13:22:47;;;;;;;4.10;1.40;;;14.60;99.90;;;;;;5030239;28;20531;-88
2022/09/17 13:25:32;;;;;;;2.80;1.17;;;14.60;99.90;;;;;;5036969;28;20430;-88
2022/09/17 13:28:18;;;;;;;7.27;1.20;;;14.80;99.90;;;;;;5033521;28;21746;-88
2022/09/17 13:31:07;;;;;;;5.30;1.17;;;15.00;99.90;;;;;;5039716;28;20515;-89
2022/09/17 13:33:58;;;;;;;3.17;1.10;;;15.10;99.90;;;;;;5035110;28;20421;-88
2022/09/17 13:36:47;;;;;;;6.57;1.10;;;15.00;99.90;;;;;;5035350;28;20446;-88
2022/09/17 13:39:40;;;;;;;12.20;0.90;;;15.00;99.90;;;;;;5040740;28;20456;-88
2022/09/17 13:42:28;;;;;;;4.00;1.00;;;15.00;99.90;;;;;;5035909;28;20463;-88
2022/09/17 13:45:16;;;;;;;6.50;1.00;;;14.90;99.90;;;;;;5036765;28;20827;-89
2022/09/17 13:48:05;;;;;;;4.77;1.10;;;15.10;99.90;;;;;;5034427;28;20518;-88
2022/09/17 13:50:51;;;;;;;9.20;1.40;;;15.30;99.90;;;;;;5034156;28;20674;-88
2022/09/17 13:53:38;;;;;;;7.13;1.13;;;15.50;99.90;;;;;;5037489;28;20525;-88
2022/09/17 13:56:33;;;;;;;2.60;0.90;;;15.90;99.90;;;;;;5040804;28;20438;-88
2022/09/17 13:59:23;;;;;;;5.07;1.63;;;16.50;93.40;;;;;;5040459;28;20429;-88
2022/09/17 14:02:35;;;;;;;2.00;0.60;;;16.80;79.30;;;;;;5036745;28;20452;-88
2022/09/17 14:05:38;;;;;;;5.00;1.13;;;16.70;61.10;;;;;;5044386;28;20442;-89
2022/09/17 14:08:29;;;;;;;11.93;1.60;;;16.70;61.50;;;;;;5040248;28;20464;-89
2022/09/17 14:11:37;;;;;;;3.10;0.80;;;16.40;56.50;;;;;;5040505;28;20558;-89
2022/09/17 14:14:46;;;;;;;7.33;0.90;;;16.30;56.70;;;;;;5042325;28;20451;-88
2022/09/17 14:17:51;;;;;;;6.57;1.93;;;16.30;57.40;;;;;;5041205;28;20474;-88
2022/09/17 14:20:39;;;;;;;3.43;0.90;;;16.30;61.80;;;;;;5041819;28;20425;-88
2022/09/17 14:23:25;;;;;;;4.80;1.10;;;16.30;56.90;;;;;;5034920;28;20444;-87
2022/09/17 14:26:19;;;;;;;3.53;0.87;;;16.10;54.50;;;;;;5039565;28;20478;-88
2022/09/17 14:29:18;;;;;;;3.03;0.80;;;16.10;57.40;;;;;;5039985;28;20422;-88
2022/09/17 14:32:07;;;;;;;5.43;0.97;;;16.00;60.30;;;;;;5036212;28;20464;-88
2022/09/17 14:34:52;;;;;;;2.40;0.80;;;16.00;61.70;;;;;;5039578;28;20430;-88
2022/09/17 14:37:41;;;;;;;4.20;1.10;;;15.70;61.50;;;;;;5036284;28;20449;-87
2022/09/17 14:40:28;;;;;;;3.10;0.80;;;15.60;61.40;;;;;;5039148;28;20494;-89
2022/09/17 14:43:20;;;;;;;2.90;0.90;;;15.60;62.60;;;;;;5038994;28;21268;-89
2022/09/17 14:46:10;;;;;;;4.97;1.10;;;15.50;65.30;;;;;;5036743;28;20479;-88
2022/09/17 14:49:13;;;;;;;9.53;1.07;;;15.30;66.20;;;;;;5039343;28;20485;-89